createdAt,value
2022-09-21T00:00:26.754Z,101133.28
2022-09-21T00:01:30.921Z,101142.38
2022-09-21T00:02:33.209Z,101147.91
2022-09-21T00:03:36.544Z,101144.31
2022-09-21T00:04:38.657Z,101144.31
2022-09-21T00:05:40.791Z,101140.69
2022-09-21T00:06:46.130Z,101143.47
2022-09-21T00:07:48.312Z,101144.31
2022-09-21T00:08:51.288Z,101144.31
2022-09-21T00:09:53.410Z,101143.47
2022-09-21T00:10:55.687Z,101149.84
2022-09-21T00:11:58.451Z,101143.47
2022-09-21T00:13:03.037Z,101141.56
2022-09-21T00:14:12.606Z,101137.94
2022-09-21T00:15:18.028Z,101146.22
2022-09-21T00:16:20.744Z,101147.06
2022-09-21T00:17:22.932Z,101143.47
2022-09-21T00:18:25.807Z,101145.38
2022-09-21T00:19:27.937Z,101148.97
2022-09-21T00:20:30.287Z,101145.38
2022-09-21T00:21:33.195Z,101146.22
2022-09-21T00:22:36.093Z,101142.63
2022-09-21T00:23:39.068Z,101142.38
2022-09-21T00:24:41.247Z,101142.63
2022-09-21T00:25:43.396Z,101140.94
2022-09-21T00:26:45.519Z,101139.88
2022-09-21T00:27:53.402Z,101139.88
2022-09-21T00:28:58.046Z,101143.69
2022-09-21T00:30:02.603Z,101153.66
2022-09-21T00:31:07.272Z,101141.75
2022-09-21T00:32:12.277Z,101150.03
2022-09-21T00:33:14.512Z,101148.16
2022-09-21T00:34:16.747Z,101148.97
2022-09-21T00:35:19.297Z,101141.75
2022-09-21T00:36:24.569Z,101144.78
2022-09-21T00:37:27.737Z,101147.53
2022-09-21T00:38:30.108Z,101149.22
2022-09-21T00:39:32.261Z,101142.88
2022-09-21T00:40:34.452Z,101145.63
2022-09-21T00:41:36.697Z,101144.78
2022-09-21T00:42:39.144Z,101150.28
2022-09-21T00:43:46.287Z,101146.69
2022-09-21T00:44:48.478Z,101150.28
2022-09-21T00:45:58.127Z,101149.47
2022-09-21T00:47:09.902Z,101150.28
2022-09-21T00:48:12.131Z,101145.88
2022-09-21T00:49:15.274Z,101147.78
2022-09-21T00:50:20.604Z,101145.00
2022-09-21T00:51:22.792Z,101154.97
2022-09-21T00:52:27.306Z,101145.00
2022-09-21T00:53:30.194Z,101147.78
2022-09-21T00:54:39.156Z,101155.22
2022-09-21T00:55:46.444Z,101148.84
2022-09-21T00:56:48.891Z,101145.25
2022-09-21T00:57:55.966Z,101148.84
2022-09-21T00:58:58.499Z,101150.78
2022-09-21T01:00:03.525Z,101149.09
2022-09-21T01:01:05.748Z,101149.09
2022-09-21T01:02:08.448Z,101151.84
2022-09-21T01:03:13.002Z,101149.09
2022-09-21T01:04:16.916Z,101164.56
2022-09-21T01:05:19.306Z,101151.00
2022-09-21T01:06:22.570Z,101158.22
2022-09-21T01:07:29.727Z,101149.94
2022-09-21T01:08:33.704Z,101154.59
2022-09-21T01:09:36.437Z,101153.78
2022-09-21T01:10:48.953Z,101156.53
2022-09-21T01:12:18.545Z,101145.50
2022-09-21T01:13:43.503Z,101159.28
2022-09-21T01:15:13.984Z,101157.59
2022-09-21T01:16:45.529Z,101154.03
2022-09-21T01:18:09.663Z,101160.59
2022-09-21T01:19:47.950Z,101154.03
2022-09-21T01:20:55.976Z,101158.91
2022-09-21T01:22:37.480Z,101159.16
2022-09-21T01:24:13.277Z,101168.50
2022-09-21T01:25:53.833Z,101164.06
2022-09-21T01:27:29.698Z,101156.84
2022-09-21T01:28:41.755Z,101167.06
2022-09-21T01:29:53.124Z,101164.53
2022-09-21T01:30:58.949Z,101168.13
2022-09-21T01:32:13.777Z,101165.63
2022-09-21T01:33:26.087Z,101158.41
2022-09-21T01:34:40.516Z,101164.78
2022-09-21T01:35:50.509Z,101162.22
2022-09-21T01:36:57.324Z,101165.00
2022-09-21T01:38:04.256Z,101170.75
2022-09-21T01:39:12.403Z,101174.38
2022-09-21T01:40:21.972Z,101173.50
2022-09-21T01:41:28.221Z,101169.91
2022-09-21T01:42:32.940Z,101168.22
2022-09-21T01:43:39.441Z,101167.41
2022-09-21T01:44:45.053Z,101167.41
2022-09-21T01:45:54.585Z,101170.16
2022-09-21T01:47:00.410Z,101173.16
2022-09-21T01:48:03.451Z,101173.16
2022-09-21T01:49:12.818Z,101186.97
2022-09-21T01:50:17.611Z,101180.00
2022-09-21T01:51:22.361Z,101181.88
2022-09-21T01:52:39.349Z,101178.31
2022-09-21T01:53:46.041Z,101178.53
2022-09-21T01:54:54.951Z,101179.59
2022-09-21T01:56:02.493Z,101184.25
2022-09-21T01:57:12.525Z,101183.44
2022-09-21T01:58:42.555Z,101186.44
2022-09-21T01:59:54.498Z,101183.69
2022-09-21T02:00:57.474Z,101192.19
2022-09-21T02:02:19.677Z,101182.22
2022-09-21T02:03:42.455Z,101178.59
2022-09-21T02:04:44.676Z,101182.47
2022-09-21T02:05:47.361Z,101185.44
2022-09-21T02:06:51.043Z,101181.84
2022-09-21T02:07:53.926Z,101187.38
2022-09-21T02:08:56.612Z,101189.50
2022-09-21T02:10:00.448Z,101184.22
2022-09-21T02:11:04.631Z,101190.59
2022-09-21T02:12:06.821Z,101194.44
2022-09-21T02:13:10.187Z,101187.22
2022-09-21T02:14:16.936Z,101187.47
2022-09-21T02:15:24.860Z,101189.97
2022-09-21T02:16:41.031Z,101188.53
2022-09-21T02:18:14.281Z,101187.69
2022-09-21T02:19:27.202Z,101190.44
2022-09-21T02:20:36.649Z,101191.75
2022-09-21T02:21:50.703Z,101199.78
2022-09-21T02:23:26.605Z,101195.34
2022-09-21T02:24:48.120Z,101199.16
2022-09-21T02:25:59.656Z,101200.28
2022-09-21T02:27:04.406Z,101200.28
2022-09-21T02:28:28.332Z,101199.88
2022-09-21T02:29:38.282Z,101196.28
2022-09-21T02:30:45.011Z,101199.03
2022-09-21T02:32:17.136Z,101199.25
2022-09-21T02:33:32.451Z,101202.88
2022-09-21T02:34:46.271Z,101204.19
2022-09-21T02:36:02.313Z,101201.63
2022-09-21T02:37:17.108Z,101200.81
2022-09-21T02:38:47.299Z,101199.97
2022-09-21T02:40:02.274Z,101199.34
2022-09-21T02:41:10.072Z,101198.53
2022-09-21T02:42:35.407Z,101202.09
2022-09-21T02:43:43.889Z,101201.28
2022-09-21T02:45:03.068Z,101195.97
2022-09-21T02:46:12.932Z,101204.25
2022-09-21T02:47:56.746Z,101188.78
2022-09-21T02:49:04.437Z,101199.81
2022-09-21T02:50:13.363Z,101202.59
2022-09-21T02:51:27.967Z,101204.47
2022-09-21T02:52:35.754Z,101205.53
2022-09-21T02:53:40.919Z,101203.88
2022-09-21T02:54:47.305Z,101209.41
2022-09-21T02:55:56.177Z,101204.72
2022-09-21T02:57:00.708Z,101195.84
2022-09-21T02:58:07.001Z,101199.44
2022-09-21T02:59:10.529Z,101201.38
2022-09-21T03:00:13.144Z,101206.88
2022-09-21T03:01:19.676Z,101204.13
2022-09-21T03:02:21.851Z,101204.94
2022-09-21T03:03:24.933Z,101211.28
2022-09-21T03:04:28.067Z,101204.13
2022-09-21T03:05:30.319Z,101199.69
2022-09-21T03:06:33.640Z,101217.91
2022-09-21T03:07:38.278Z,101215.97
2022-09-21T03:08:41.041Z,101212.41
2022-09-21T03:09:49.140Z,101217.91
2022-09-21T03:10:51.516Z,101212.41
2022-09-21T03:11:54.094Z,101208.53
2022-09-21T03:12:59.467Z,101214.06
2022-09-21T03:14:05.618Z,101221.25
2022-09-21T03:15:08.171Z,101214.06
2022-09-21T03:16:11.294Z,101208.53
2022-09-21T03:17:13.441Z,101213.00
2022-09-21T03:18:15.625Z,101211.28
2022-09-21T03:19:17.841Z,101213.00
2022-09-21T03:20:20.551Z,101213.81
2022-09-21T03:21:22.744Z,101216.56
2022-09-21T03:22:25.028Z,101210.00
2022-09-21T03:23:29.416Z,101218.25
2022-09-21T03:24:46.869Z,101221.88
2022-09-21T03:25:51.897Z,101213.59
2022-09-21T03:26:54.063Z,101219.13
2022-09-21T03:27:59.301Z,101217.19
2022-09-21T03:29:01.451Z,101217.19
2022-09-21T03:30:03.895Z,101213.59
2022-09-21T03:31:06.807Z,101211.69
2022-09-21T03:32:09.796Z,101215.28
2022-09-21T03:33:13.190Z,101216.38
2022-09-21T03:34:15.399Z,101222.47
2022-09-21T03:35:18.384Z,101222.47
2022-09-21T03:36:21.086Z,101216.13
2022-09-21T03:37:25.481Z,101220.56
2022-09-21T03:38:27.630Z,101215.28
2022-09-21T03:39:30.147Z,101219.72
2022-09-21T03:40:33.140Z,101215.28
2022-09-21T03:41:35.270Z,101216.97
2022-09-21T03:42:41.096Z,101220.78
2022-09-21T03:43:43.203Z,101223.53
2022-09-21T03:44:45.352Z,101217.19
2022-09-21T03:45:48.379Z,101227.16
2022-09-21T03:46:53.972Z,101219.72
2022-09-21T03:48:00.510Z,101226.09
2022-09-21T03:49:05.293Z,101216.13
2022-09-21T03:50:10.147Z,101221.66
2022-09-21T03:51:12.566Z,101214.44
2022-09-21T03:52:14.691Z,101223.34
2022-09-21T03:53:19.465Z,101225.22
2022-09-21T03:54:21.610Z,101222.47
2022-09-21T03:55:24.377Z,101228.00
2022-09-21T03:56:26.904Z,101223.53
2022-09-21T03:57:29.053Z,101220.78
2022-09-21T03:58:31.193Z,101224.41
2022-09-21T03:59:33.354Z,101222.72
2022-09-21T04:00:36.168Z,101226.28
2022-09-21T04:01:38.686Z,101224.41
2022-09-21T04:02:41.365Z,101229.06
2022-09-21T04:03:43.537Z,101228.22
2022-09-21T04:04:48.918Z,101226.28
2022-09-21T04:05:51.128Z,101233.75
2022-09-21T04:06:53.265Z,101232.03
2022-09-21T04:07:56.892Z,101228.22
2022-09-21T04:09:00.376Z,101227.41
2022-09-21T04:10:04.714Z,101230.16
2022-09-21T04:11:20.271Z,101221.88
2022-09-21T04:12:25.477Z,101227.41
2022-09-21T04:13:27.623Z,101234.81
2022-09-21T04:14:29.901Z,101226.53
2022-09-21T04:15:32.895Z,101224.00
2022-09-21T04:16:38.558Z,101229.53
2022-09-21T04:17:41.554Z,101232.03
2022-09-21T04:18:43.752Z,101233.34
2022-09-21T04:19:45.879Z,101229.53
2022-09-21T04:20:48.013Z,101236.97
2022-09-21T04:21:51.571Z,101230.59
2022-09-21T04:22:53.831Z,101235.28
2022-09-21T04:23:56.347Z,101230.00
2022-09-21T04:24:58.633Z,101229.13
2022-09-21T04:26:02.344Z,101235.75
2022-09-21T04:27:04.488Z,101237.63
2022-09-21T04:28:06.608Z,101237.88
2022-09-21T04:29:11.120Z,101231.31
2022-09-21T04:30:15.202Z,101232.59
2022-09-21T04:31:17.473Z,101238.94
2022-09-21T04:32:19.625Z,101240.25
2022-09-21T04:33:24.033Z,101234.97
2022-09-21T04:34:26.656Z,101240.47
2022-09-21T04:35:28.818Z,101236.03
2022-09-21T04:36:36.757Z,101241.78
2022-09-21T04:37:42.139Z,101239.84
2022-09-21T04:38:44.871Z,101234.81
2022-09-21T04:39:47.114Z,101243.09
2022-09-21T04:40:59.072Z,101241.38
2022-09-21T04:42:01.769Z,101246.06
2022-09-21T04:43:03.906Z,101238.03
2022-09-21T04:44:06.189Z,101246.50
2022-09-21T04:45:11.187Z,101243.16
2022-09-21T04:46:16.122Z,101247.84
2022-09-21T04:47:19.479Z,101251.66
2022-09-21T04:48:21.600Z,101254.66
2022-09-21T04:49:23.928Z,101245.50
2022-09-21T04:50:26.072Z,101260.34
2022-09-21T04:51:39.135Z,101250.44
2022-09-21T04:52:41.278Z,101254.47
2022-09-21T04:53:44.859Z,101260.00
2022-09-21T04:54:47.591Z,101253.63
2022-09-21T04:55:49.826Z,101256.38
2022-09-21T04:56:54.831Z,101257.44
2022-09-21T04:58:04.272Z,101256.59
2022-09-21T04:59:06.585Z,101256.84
2022-09-21T05:00:09.701Z,101262.34
2022-09-21T05:01:12.079Z,101262.13
2022-09-21T05:02:14.447Z,101265.13
2022-09-21T05:03:17.381Z,101267.00
2022-09-21T05:04:19.570Z,101260.66
2022-09-21T05:05:21.706Z,101257.06
2022-09-21T05:06:23.971Z,101269.16
2022-09-21T05:07:26.080Z,101263.66
2022-09-21T05:08:47.587Z,101269.16
2022-09-21T05:10:04.854Z,101273.81
2022-09-21T05:11:08.185Z,101273.81
2022-09-21T05:12:10.327Z,101268.53
2022-09-21T05:13:15.601Z,101273.81
2022-09-21T05:14:20.053Z,101273.81
2022-09-21T05:15:22.415Z,101276.56
2022-09-21T05:16:24.550Z,101274.91
2022-09-21T05:17:26.891Z,101278.50
2022-09-21T05:18:29.602Z,101282.31
2022-09-21T05:19:31.815Z,101281.25
2022-09-21T05:20:34.023Z,101279.56
2022-09-21T05:21:39.347Z,101289.50
2022-09-21T05:22:41.620Z,101284.00
2022-09-21T05:23:43.768Z,101284.00
2022-09-21T05:24:49.176Z,101286.75
2022-09-21T05:25:51.645Z,101291.19
2022-09-21T05:26:53.764Z,101293.09
2022-09-21T05:27:55.932Z,101286.53
2022-09-21T05:29:01.092Z,101291.19
2022-09-21T05:30:04.630Z,101292.03
2022-09-21T05:31:20.911Z,101296.47
2022-09-21T05:32:54.662Z,101296.47
2022-09-21T05:34:12.344Z,101298.19
2022-09-21T05:35:35.481Z,101300.94
2022-09-21T05:37:24.908Z,101296.25
2022-09-21T05:38:27.305Z,101296.25
2022-09-21T05:39:29.674Z,101301.75
2022-09-21T05:40:37.602Z,101303.47
2022-09-21T05:41:43.245Z,101301.53
2022-09-21T05:42:45.679Z,101305.97
2022-09-21T05:43:48.078Z,101307.91
2022-09-21T05:44:50.770Z,101304.91
2022-09-21T05:46:13.418Z,101305.75
2022-09-21T05:47:38.677Z,101303.00
2022-09-21T05:48:53.344Z,101307.44
2022-09-21T05:50:17.956Z,101306.38
2022-09-21T05:51:47.827Z,101313.59
2022-09-21T05:53:22.424Z,101307.22
2022-09-21T05:54:31.269Z,101307.84
2022-09-21T05:56:05.479Z,101305.91
2022-09-21T05:57:38.284Z,101312.06
2022-09-21T05:59:06.673Z,101307.38
2022-09-21T06:00:20.393Z,101314.56
2022-09-21T06:01:56.216Z,101310.75
2022-09-21T06:03:22.462Z,101312.44
2022-09-21T06:04:24.905Z,101318.78
2022-09-21T06:05:27.208Z,101313.06
2022-09-21T06:06:29.363Z,101311.16
2022-09-21T06:07:31.515Z,101311.97
2022-09-21T06:08:36.700Z,101315.38
2022-09-21T06:09:42.942Z,101319.78
2022-09-21T06:10:45.851Z,101321.47
2022-09-21T06:11:48.411Z,101317.66
2022-09-21T06:12:50.748Z,101323.81
2022-09-21T06:14:01.270Z,101316.38
2022-09-21T06:15:04.812Z,101318.06
2022-09-21T06:16:07.708Z,101319.50
2022-09-21T06:17:13.091Z,101321.22
2022-09-21T06:18:17.954Z,101327.31
2022-09-21T06:19:20.866Z,101326.03
2022-09-21T06:20:25.187Z,101327.72
2022-09-21T06:21:27.461Z,101325.56
2022-09-21T06:22:29.897Z,101316.22
2022-09-21T06:23:32.126Z,101324.25
2022-09-21T06:24:40.449Z,101322.94
2022-09-21T06:25:42.816Z,101320.81
2022-09-21T06:26:47.796Z,101319.53
2022-09-21T06:27:49.957Z,101319.28
2022-09-21T06:28:52.208Z,101327.31
2022-09-21T06:29:54.355Z,101326.25
2022-09-21T06:30:58.320Z,101322.22
2022-09-21T06:32:02.670Z,101317.31
2022-09-21T06:33:06.550Z,101326.19
2022-09-21T06:34:08.814Z,101328.72
2022-09-21T06:35:11.911Z,101325.75
2022-09-21T06:36:14.803Z,101320.81
2022-09-21T06:37:17.062Z,101326.97
2022-09-21T06:38:19.225Z,101320.38
2022-09-21T06:39:21.384Z,101326.50
2022-09-21T06:40:23.578Z,101327.13
2022-09-21T06:41:25.775Z,101333.22
2022-09-21T06:42:31.025Z,101333.03
2022-09-21T06:43:33.341Z,101330.88
2022-09-21T06:44:35.523Z,101337.84
2022-09-21T06:45:37.733Z,101331.00
2022-09-21T06:46:39.979Z,101331.84
2022-09-21T06:47:48.217Z,101332.47
2022-09-21T06:48:50.644Z,101337.75
2022-09-21T06:49:54.351Z,101337.31
2022-09-21T06:50:58.546Z,101339.84
2022-09-21T06:52:01.220Z,101334.06
2022-09-21T06:53:04.272Z,101338.28
2022-09-21T06:54:06.471Z,101338.91
2022-09-21T06:55:10.138Z,101342.25
2022-09-21T06:56:15.859Z,101334.38
2022-09-21T06:57:18.002Z,101338.81
2022-09-21T06:58:20.322Z,101341.34
2022-09-21T06:59:22.452Z,101337.28
2022-09-21T07:00:24.593Z,101333.22
2022-09-21T07:01:26.951Z,101341.25
2022-09-21T07:02:32.112Z,101335.25
2022-09-21T07:03:34.736Z,101341.16
2022-09-21T07:04:37.314Z,101336.25
2022-09-21T07:05:40.222Z,101344.94
2022-09-21T07:06:42.525Z,101340.81
2022-09-21T07:07:44.675Z,101344.88
2022-09-21T07:10:15.881Z,101345.59
2022-09-21T07:11:22.086Z,101342.97
2022-09-21T07:12:25.431Z,101346.94
2022-09-21T07:13:30.762Z,101349.84
2022-09-21T07:14:34.236Z,101346.63
2022-09-21T07:15:36.897Z,101343.16
2022-09-21T07:16:40.122Z,101350.97
2022-09-21T07:17:50.306Z,101357.47
2022-09-21T07:18:54.756Z,101357.84
2022-09-21T07:19:56.887Z,101358.81
2022-09-21T07:21:11.801Z,101357.00
2022-09-21T07:22:14.027Z,101356.56
2022-09-21T07:23:20.492Z,101360.28
2022-09-21T07:24:22.749Z,101346.84
2022-09-21T07:25:24.871Z,101354.41
2022-09-21T07:26:27.027Z,101357.53
2022-09-21T07:27:30.984Z,101355.97
2022-09-21T07:28:33.336Z,101359.09
2022-09-21T07:29:35.521Z,101354.78
2022-09-21T07:30:39.176Z,101363.19
2022-09-21T07:31:45.098Z,101362.50
2022-09-21T07:32:47.624Z,101360.09
2022-09-21T07:33:49.931Z,101358.53
2022-09-21T07:34:56.554Z,101365.00
2022-09-21T07:35:58.947Z,101364.31
2022-09-21T07:37:01.907Z,101373.56
2022-09-21T07:38:06.743Z,101357.06
2022-09-21T07:39:09.878Z,101362.75
2022-09-21T07:40:12.231Z,101362.88
2022-09-21T07:41:14.756Z,101358.28
2022-09-21T07:42:18.798Z,101360.09
2022-09-21T07:43:21.083Z,101362.97
2022-09-21T07:44:23.195Z,101363.91
2022-09-21T07:45:26.776Z,101362.09
2022-09-21T07:46:29.338Z,101365.81
2022-09-21T07:47:31.711Z,101368.69
2022-09-21T07:48:33.906Z,101362.16
2022-09-21T07:49:43.884Z,101365.06
2022-09-21T07:50:46.027Z,101368.75
2022-09-21T07:51:48.361Z,101368.03
2022-09-21T07:52:50.563Z,101370.91
2022-09-21T07:53:59.513Z,101370.75
2022-09-21T07:55:01.757Z,101371.69
2022-09-21T07:56:06.072Z,101369.00
2022-09-21T07:57:26.786Z,101372.44
2022-09-21T07:58:47.877Z,101370.13
2022-09-21T07:59:50.311Z,101372.03
2022-09-21T08:00:52.577Z,101366.06
2022-09-21T08:01:54.833Z,101371.22
2022-09-21T08:02:57.674Z,101367.75
2022-09-21T08:04:00.941Z,101369.63
2022-09-21T08:05:03.425Z,101366.16
2022-09-21T08:06:06.011Z,101372.47
2022-09-21T08:07:08.402Z,101365.13
2022-09-21T08:08:10.564Z,101365.03
2022-09-21T08:09:12.734Z,101363.25
2022-09-21T08:10:14.953Z,101368.69
2022-09-21T08:11:22.155Z,101365.22
2022-09-21T08:12:24.370Z,101365.09
2022-09-21T08:13:26.544Z,101364.13
2022-09-21T08:14:29.403Z,101364.81
2022-09-21T08:15:48.741Z,101362.16
2022-09-21T08:16:51.805Z,101369.56
2022-09-21T08:17:54.513Z,101361.06
2022-09-21T08:18:57.171Z,101368.72
2022-09-21T08:19:59.352Z,101369.41
2022-09-21T08:21:04.853Z,101376.22
2022-09-21T08:22:07.095Z,101372.13
2022-09-21T08:23:09.973Z,101365.00
2022-09-21T08:24:12.167Z,101362.88
2022-09-21T08:25:14.486Z,101364.31
2022-09-21T08:26:19.561Z,101362.75
2022-09-21T08:27:25.135Z,101357.81
2022-09-21T08:28:28.825Z,101365.69
2022-09-21T08:29:31.005Z,101363.25
2022-09-21T08:30:34.214Z,101359.94
2022-09-21T08:31:36.371Z,101370.59
2022-09-21T08:32:50.562Z,101364.47
2022-09-21T08:33:55.279Z,101356.41
2022-09-21T08:34:57.470Z,101367.88
2022-09-21T08:36:01.181Z,101364.53
2022-09-21T08:37:03.419Z,101363.13
2022-09-21T08:38:05.541Z,101365.63
2022-09-21T08:39:09.152Z,101359.78
2022-09-21T08:40:12.512Z,101355.31
2022-09-21T08:41:36.077Z,101356.41
2022-09-21T08:42:53.168Z,101363.38
2022-09-21T08:44:11.190Z,101363.03
2022-09-21T08:45:19.718Z,101367.44
2022-09-21T08:46:24.564Z,101361.81
2022-09-21T08:47:44.979Z,101362.63
2022-09-21T08:48:54.452Z,101360.91
2022-09-21T08:50:02.391Z,101365.59
2022-09-21T08:51:08.842Z,101366.13
2022-09-21T08:52:17.128Z,101365.81
2022-09-21T08:53:26.965Z,101362.69
2022-09-21T08:54:58.544Z,101361.25
2022-09-21T08:56:01.868Z,101381.38
2022-09-21T08:57:05.651Z,101363.13
2022-09-21T08:58:23.601Z,101372.63
2022-09-21T08:59:25.980Z,101361.97
2022-09-21T09:00:32.280Z,101366.16
2022-09-21T09:02:28.267Z,101366.41
2022-09-21T09:03:52.132Z,101369.16
2022-09-21T09:05:20.464Z,101370.50
2022-09-21T09:06:41.257Z,101371.59
2022-09-21T09:08:04.741Z,101361.47
2022-09-21T09:09:15.738Z,101365.13
2022-09-21T09:10:38.514Z,101372.94
2022-09-21T09:11:46.820Z,101369.81
2022-09-21T09:13:07.412Z,101366.16
2022-09-21T09:14:21.503Z,101365.56
2022-09-21T09:15:45.109Z,101369.44
2022-09-21T09:16:56.451Z,101371.41
2022-09-21T09:18:16.860Z,101372.47
2022-09-21T09:19:50.565Z,101368.81
2022-09-21T09:21:13.189Z,101366.47
2022-09-21T09:22:25.670Z,101363.63
2022-09-21T09:23:32.739Z,101360.47
2022-09-21T09:24:51.403Z,101362.91
2022-09-21T09:26:00.213Z,101358.38
2022-09-21T09:27:20.648Z,101350.75
2022-09-21T09:28:38.584Z,101356.81
2022-09-21T09:30:03.946Z,101363.75
2022-09-21T09:31:24.845Z,101359.44
2022-09-21T09:32:33.989Z,101363.03
2022-09-21T09:33:49.743Z,101364.06
2022-09-21T09:35:13.729Z,101348.81
2022-09-21T09:36:16.908Z,101351.56
2022-09-21T09:37:23.576Z,101355.97
2022-09-21T09:38:33.025Z,101351.97
2022-09-21T09:39:35.397Z,101350.22
2022-09-21T09:40:56.638Z,101364.19
2022-09-21T09:42:35.496Z,101350.69
2022-09-21T09:43:46.642Z,101348.72
2022-09-21T09:45:15.612Z,101352.06
2022-09-21T09:46:32.796Z,101354.00
2022-09-21T09:47:59.131Z,101354.00
2022-09-21T09:49:12.315Z,101349.84
2022-09-21T09:50:25.521Z,101348.47
2022-09-21T09:51:27.760Z,101342.13
2022-09-21T09:52:31.053Z,101355.91
2022-09-21T09:53:34.045Z,101350.59
2022-09-21T09:54:37.043Z,101350.91
2022-09-21T09:55:43.811Z,101344.75
2022-09-21T09:56:46.073Z,101347.25
2022-09-21T09:57:49.675Z,101344.75
2022-09-21T09:59:03.719Z,101340.81
2022-09-21T10:00:12.579Z,101344.75
2022-09-21T10:01:42.725Z,101346.97
2022-09-21T10:02:50.817Z,101351.16
2022-09-21T10:04:09.816Z,101346.34
2022-09-21T10:05:24.058Z,101342.19
2022-09-21T10:06:36.454Z,101342.19
2022-09-21T10:07:40.808Z,101340.50
2022-09-21T10:08:53.286Z,101343.63
2022-09-21T10:09:55.546Z,101343.94
2022-09-21T10:10:58.399Z,101343.69
2022-09-21T10:12:27.622Z,101339.84
2022-09-21T10:13:33.150Z,101343.22
2022-09-21T10:14:36.302Z,101339.91
2022-09-21T10:15:54.470Z,101341.84
2022-09-21T10:17:03.929Z,101339.66
2022-09-21T10:18:37.147Z,101339.16
2022-09-21T10:19:39.507Z,101340.28
2022-09-21T10:21:07.627Z,101336.88
2022-09-21T10:22:18.228Z,101338.63
2022-09-21T10:23:20.636Z,101345.97
2022-09-21T10:24:46.585Z,101340.44
2022-09-21T10:25:58.253Z,101344.66
2022-09-21T10:27:06.415Z,101335.78
2022-09-21T10:28:13.608Z,101341.44
2022-09-21T10:29:22.028Z,101338.69
2022-09-21T10:30:30.057Z,101330.13
2022-09-21T10:31:34.511Z,101332.16
2022-09-21T10:32:56.872Z,101336.16
2022-09-21T10:34:02.024Z,101333.97
2022-09-21T10:35:10.594Z,101329.28
2022-09-21T10:36:35.783Z,101337.78
2022-09-21T10:37:54.601Z,101345.97
2022-09-21T10:38:57.288Z,101343.81
2022-09-21T10:40:00.020Z,101337.69
2022-09-21T10:41:03.033Z,101333.56
2022-09-21T10:42:14.548Z,101345.09
2022-09-21T10:43:37.629Z,101342.09
2022-09-21T10:44:43.391Z,101338.25
2022-09-21T10:45:54.203Z,101340.25
2022-09-21T10:46:58.146Z,101330.53
2022-09-21T10:48:06.024Z,101331.94
2022-09-21T10:49:17.318Z,101332.78
2022-09-21T10:50:35.119Z,101326.97
2022-09-21T10:51:37.363Z,101329.16
2022-09-21T10:52:45.978Z,101327.78
2022-09-21T10:53:53.792Z,101329.75
2022-09-21T10:55:00.138Z,101332.00
2022-09-21T10:56:22.368Z,101333.97
2022-09-21T10:57:26.769Z,101331.47
2022-09-21T10:58:29.515Z,101327.81
2022-09-21T10:59:33.790Z,101325.03
2022-09-21T11:00:43.804Z,101325.88
2022-09-21T11:01:48.682Z,101323.91
2022-09-21T11:02:51.396Z,101323.63
2022-09-21T11:04:10.178Z,101324.16
2022-09-21T11:05:26.762Z,101327.50
2022-09-21T11:06:46.681Z,101320.50
2022-09-21T11:08:05.460Z,101319.09
2022-09-21T11:09:13.970Z,101325.56
2022-09-21T11:10:43.879Z,101323.28
2022-09-21T11:11:45.930Z,101317.69
2022-09-21T11:13:30.846Z,101319.06
2022-09-21T11:14:52.369Z,101316.28
2022-09-21T11:16:13.204Z,101318.53
2022-09-21T11:17:44.075Z,101320.78
2022-09-21T11:19:18.560Z,101310.19
2022-09-21T11:20:41.590Z,101316.31
2022-09-21T11:22:05.929Z,101321.38
2022-09-21T11:23:33.765Z,101308.81
2022-09-21T11:25:07.420Z,101307.41
2022-09-21T11:26:26.435Z,101302.94
2022-09-21T11:27:43.082Z,101304.91
2022-09-21T11:28:57.978Z,101306.03
2022-09-21T11:30:10.432Z,101303.53
2022-09-21T11:31:46.361Z,101303.25
2022-09-21T11:33:10.778Z,101306.88
2022-09-21T11:34:31.132Z,101306.56
2022-09-21T11:36:12.064Z,101302.66
2022-09-21T11:37:39.461Z,101302.34
2022-09-21T11:39:00.321Z,101300.72
2022-09-21T11:40:19.990Z,101307.72
2022-09-21T11:41:22.307Z,101310.50
2022-09-21T11:42:55.698Z,101303.25
2022-09-21T11:44:20.058Z,101303.25
2022-09-21T11:45:50.506Z,101303.53
2022-09-21T11:47:37.277Z,101303.81
2022-09-21T11:49:06.604Z,101302.97
2022-09-21T11:50:31.625Z,101299.63
2022-09-21T11:51:45.706Z,101306.66
2022-09-21T11:53:09.363Z,101296.59
2022-09-21T11:54:17.510Z,101291.56
2022-09-21T11:55:38.511Z,101292.97
2022-09-21T11:57:02.584Z,101288.81
2022-09-21T11:58:18.736Z,101286.28
2022-09-21T12:00:00.659Z,101288.56
2022-09-21T12:01:19.192Z,101300.88
2022-09-21T12:02:28.257Z,101289.13
2022-09-21T12:03:47.676Z,101289.72
2022-09-21T12:05:00.505Z,101285.25
2022-09-21T12:06:52.988Z,101289.44
2022-09-21T12:08:34.707Z,101290.56
2022-09-21T12:09:56.873Z,101286.94
2022-09-21T12:11:29.342Z,101291.97
2022-09-21T12:12:57.690Z,101283.59
2022-09-21T12:14:15.350Z,101281.38
2022-09-21T12:15:26.619Z,101284.16
2022-09-21T12:16:43.683Z,101279.69
2022-09-21T12:17:53.180Z,101285.59
2022-09-21T12:19:03.961Z,101275.53
2022-09-21T12:20:20.842Z,101277.50
2022-09-21T12:21:34.568Z,101277.78
2022-09-21T12:22:42.500Z,101273.03
2022-09-21T12:24:04.489Z,101269.97
2022-09-21T12:25:20.195Z,101277.53
2022-09-21T12:26:31.988Z,101276.13
2022-09-21T12:27:57.085Z,101268.03
2022-09-21T12:29:28.910Z,101274.19
2022-09-21T12:30:36.627Z,101269.75
2022-09-21T12:31:56.284Z,101274.78
2022-09-21T12:33:00.405Z,101273.69
2022-09-21T12:34:22.784Z,101281.22
2022-09-21T12:35:37.172Z,101275.63
2022-09-21T12:36:46.327Z,101269.81
2022-09-21T12:37:54.939Z,101276.78
2022-09-21T12:39:18.546Z,101273.72
2022-09-21T12:40:38.660Z,101275.69
2022-09-21T12:41:53.343Z,101269.28
2022-09-21T12:43:03.243Z,101270.97
2022-09-21T12:44:24.275Z,101269.00
2022-09-21T12:45:37.752Z,101266.53
2022-09-21T12:46:58.376Z,101266.53
2022-09-21T12:48:40.046Z,101271.31
2022-09-21T12:49:48.417Z,101274.09
2022-09-21T12:51:07.481Z,101268.25
2022-09-21T12:52:22.401Z,101259.88
2022-09-21T12:53:27.432Z,101263.53
2022-09-21T12:54:39.531Z,101270.50
2022-09-21T12:55:54.301Z,101255.47
2022-09-21T12:58:13.935Z,101271.34
2022-09-21T12:59:41.730Z,101264.38
2022-09-21T13:01:06.642Z,101265.53
2022-09-21T13:02:26.541Z,101261.84
2022-09-21T13:03:37.739Z,101261.31
2022-09-21T13:04:58.001Z,101262.97
2022-09-21T13:06:44.247Z,101260.44
2022-09-21T13:08:16.349Z,101262.13
2022-09-21T13:09:20.934Z,101266.59
2022-09-21T13:10:31.513Z,101261.56
2022-09-21T13:11:35.265Z,101260.19
2022-09-21T13:12:44.288Z,101261.56
2022-09-21T13:13:59.869Z,101267.69
2022-09-21T13:15:14.919Z,101256.81
2022-09-21T13:17:58.935Z,101260.16
2022-09-21T13:19:04.210Z,101255.69